Time;durP1;ratioP1;P1;durP2;ratioP2;P2;SDS_P1;SDS_P2;PMS_P1;PMS_P2;Temp;Humidity;BMP_temperature;BMP_pressure;BME280_temperature;BME280_humidity;BME280_pressure;Samples;Min_cycle;Max_cycle;Signal;HPM_P1;HPM_P2
2022/07/25 00:02:12;;;;;;;;;;;;;;;-140.72;100.00;52118.97;5049130;28;19985;-65
2022/07/25 00:04:37;;;;;;;;;;;;;;;-140.72;100.00;52098.69;5052497;28;20343;-65
2022/07/25 00:07:03;;;;;;;;;;;;;;;-140.72;100.00;52106.78;5053184;28;19925;-66
2022/07/25 00:09:28;;;;;;;;;;;;;;;-140.72;100.00;52125.06;5065866;28;20315;-66
2022/07/25 00:11:53;;;;;;;;;;;;;;;-140.72;100.00;52129.13;5036376;28;20413;-65
2022/07/25 00:14:18;;;;;;;;;;;;;;;-140.72;100.00;52147.38;5052773;28;19947;-66
2022/07/25 00:16:44;;;;;;;;;;;;;;;-140.72;100.00;52129.13;5044754;28;19974;-65
2022/07/25 00:19:09;;;;;;;;;;;;;;;-140.72;100.00;52131.16;5036966;28;19917;-66
2022/07/25 00:21:34;;;;;;;;;;;;;;;-140.72;100.00;52139.25;5062129;28;19917;-66
2022/07/25 00:23:59;;;;;;;;;;;;;;;-140.72;100.00;52112.88;5025044;28;19917;-65
2022/07/25 00:26:24;;;;;;;;;;;;;;;-140.72;100.00;52127.09;5049007;28;19916;-66
2022/07/25 00:28:50;;;;;;;;;;;;;;;-140.72;100.00;52127.09;5061639;28;19917;-66
2022/07/25 00:31:15;;;;;;;;;;;;;;;-140.72;100.00;52151.44;5045744;28;19923;-66
2022/07/25 00:33:40;;;;;;;;;;;;;;;-140.72;100.00;52159.56;5063478;28;20011;-66
2022/07/25 00:36:09;;;;;;;;;;;;;;;-140.72;100.00;52135.19;5035240;28;19971;-65
2022/07/25 00:38:34;;;;;;;;;;;;;;;-140.72;100.00;52131.16;5046332;28;19970;-66
2022/07/25 00:40:59;;;;;;;;;;;;;;;-140.72;100.00;52151.44;5056839;28;19916;-65
2022/07/25 00:43:25;;;;;;;;;;;;;;;-140.72;100.00;52151.44;5067832;28;20066;-65
2022/07/25 00:45:50;;;;;;;;;;;;;;;-140.72;100.00;52125.06;5066489;28;19923;-66
2022/07/25 00:48:16;;;;;;;;;;;;;;;-140.72;100.00;52147.38;5052970;28;20307;-66
2022/07/25 00:50:41;;;;;;;;;;;;;;;-140.72;100.00;52149.41;5058660;28;19925;-66
2022/07/25 00:53:06;;;;;;;;;;;;;;;-140.72;100.00;52133.16;5061436;28;20383;-66
2022/07/25 00:55:32;;;;;;;;;;;;;;;-140.72;100.00;52143.31;5061710;28;20375;-66
2022/07/25 00:57:57;;;;;;;;;;;;;;;-140.72;100.00;52196.06;5058644;28;20336;-65
2022/07/25 01:00:23;;;;;;;;;;;;;;;-140.72;100.00;52155.50;5066769;28;19927;-65
2022/07/25 01:02:48;;;;;;;;;;;;;;;-140.72;100.00;52161.56;5065303;28;19986;-65
2022/07/25 01:05:13;;;;;;;;;;;;;;;-140.72;100.00;52151.44;5059955;28;19923;-65
2022/07/25 01:07:39;;;;;;;;;;;;;;;-140.72;100.00;52183.91;5054781;28;20026;-65
2022/07/25 01:10:05;;;;;;;;;;;;;;;-140.72;100.00;52163.59;5052489;28;19962;-65
2022/07/25 01:12:30;;;;;;;;;;;;;;;-140.72;100.00;52169.69;5065690;28;20015;-65
2022/07/25 01:14:56;;;;;;;;;;;;;;;-140.72;100.00;52169.69;5063026;28;19917;-65
2022/07/25 01:17:22;;;;;;;;;;;;;;;-140.72;100.00;52159.56;5033191;28;20326;-65
2022/07/25 01:19:47;;;;;;;;;;;;;;;-140.72;100.00;52123.03;5041088;28;19924;-65
2022/07/25 01:22:12;;;;;;;;;;;;;;;-140.72;100.00;52125.06;5041796;28;19921;-65
2022/07/25 01:24:37;;;;;;;;;;;;;;;-140.72;100.00;52153.47;5062295;28;19916;-65
2022/07/25 01:27:03;;;;;;;;;;;;;;;-140.72;100.00;52135.19;5040510;28;19921;-65
2022/07/25 01:29:28;;;;;;;;;;;;;;;-140.72;100.00;52147.38;5052743;28;19925;-66
2022/07/25 01:31:53;;;;;;;;;;;;;;;-140.72;100.00;52155.50;5056948;28;20380;-65
2022/07/25 01:34:19;;;;;;;;;;;;;;;-140.72;100.00;52169.69;5046373;28;19984;-65
2022/07/25 01:36:44;;;;;;;;;;;;;;;-140.72;100.00;52192.00;5057316;28;19960;-65
2022/07/25 01:39:09;;;;;;;;;;;;;;;-140.72;100.00;52206.22;5055607;28;19964;-66
2022/07/25 01:41:34;;;;;;;;;;;;;;;-140.72;100.00;52161.56;5053110;28;19924;-65
2022/07/25 01:44:00;;;;;;;;;;;;;;;-140.72;100.00;52167.66;5053289;28;19916;-66
2022/07/25 01:46:25;;;;;;;;;;;;;;;-140.72;100.00;52155.50;5051119;28;19917;-66
2022/07/25 01:48:50;;;;;;;;;;;;;;;-140.72;100.00;52161.56;5052979;28;19920;-65
2022/07/25 01:51:15;;;;;;;;;;;;;;;-140.72;100.00;52147.38;5050125;28;19940;-65
2022/07/25 01:53:40;;;;;;;;;;;;;;;-140.72;100.00;52196.06;5040833;28;20292;-65
2022/07/25 01:56:06;;;;;;;;;;;;;;;-140.72;100.00;52137.22;5062826;28;20395;-66
2022/07/25 01:58:31;;;;;;;;;;;;;;;-140.72;100.00;52177.81;5056165;28;20372;-66
2022/07/25 02:00:56;;;;;;;;;;;;;;;-140.72;100.00;52192.00;5056218;28;19924;-65
2022/07/25 02:03:30;;;;;;;;;;;;;;;-140.72;100.00;52179.84;5064149;28;19917;-65
2022/07/25 02:05:56;;;;;;;;;;;;;;;-140.72;100.00;52137.22;5063122;28;19916;-65
2022/07/25 02:08:22;;;;;;;;;;;;;;;-140.72;100.00;52194.03;5067072;28;19962;-65
2022/07/25 02:10:47;;;;;;;;;;;;;;;-140.72;100.00;52151.44;5068984;28;19932;-66
2022/07/25 02:13:12;;;;;;;;;;;;;;;-140.72;100.00;52175.78;5047782;28;19976;-66
2022/07/25 02:15:38;;;;;;;;;;;;;;;-140.72;100.00;52175.78;5051478;28;19952;-66
2022/07/25 02:18:03;;;;;;;;;;;;;;;-140.72;100.00;52155.50;5052183;28;20316;-65
2022/07/25 02:20:28;;;;;;;;;;;;;;;-140.72;100.00;52185.94;5053671;28;19994;-65
2022/07/25 02:22:53;;;;;;;;;;;;;;;-140.72;100.00;52179.84;5051620;28;19972;-65
2022/07/25 02:25:19;;;;;;;;;;;;;;;-140.72;100.00;52204.19;5041403;28;20368;-66
2022/07/25 02:27:44;;;;;;;;;;;;;;;-140.72;100.00;52194.03;5056108;28;20003;-65
2022/07/25 02:30:09;;;;;;;;;;;;;;;-140.72;100.00;52196.06;5058174;28;19917;-66
2022/07/25 02:32:34;;;;;;;;;;;;;;;-140.72;100.00;52171.72;5041932;28;20461;-67
2022/07/25 02:35:00;;;;;;;;;;;;;;;-140.72;100.00;52151.44;5038217;28;19929;-65
2022/07/25 02:37:25;;;;;;;;;;;;;;;-140.72;100.00;52139.25;5054870;28;20310;-65
2022/07/25 02:39:50;;;;;;;;;;;;;;;-140.72;100.00;52204.19;5051011;28;19921;-65
2022/07/25 02:42:16;;;;;;;;;;;;;;;-140.72;100.00;52179.84;5045875;28;19923;-66
2022/07/25 02:44:41;;;;;;;;;;;;;;;-140.72;100.00;52161.56;5053104;28;19920;-65
2022/07/25 02:47:06;;;;;;;;;;;;;;;-140.72;100.00;52206.22;5049194;28;20384;-65
2022/07/25 02:49:31;;;;;;;;;;;;;;;-140.72;100.00;52196.06;5055610;28;19917;-65
2022/07/25 02:51:57;;;;;;;;;;;;;;;-140.72;100.00;52216.34;5068554;28;19917;-65
2022/07/25 02:54:22;;;;;;;;;;;;;;;-140.72;100.00;52196.06;5039043;28;19916;-66
2022/07/25 02:56:47;;;;;;;;;;;;;;;-140.72;100.00;52163.59;5049367;28;19924;-65
2022/07/25 02:59:12;;;;;;;;;;;;;;;-140.72;100.00;52192.00;5047182;28;19963;-65
2022/07/25 03:01:38;;;;;;;;;;;;;;;-140.72;100.00;52196.06;5058095;28;20011;-65
2022/07/25 03:04:03;;;;;;;;;;;;;;;-140.72;100.00;52202.16;5055814;28;20389;-64
2022/07/25 03:06:28;;;;;;;;;;;;;;;-140.72;100.00;52200.13;5055173;28;19917;-65
2022/07/25 03:08:53;;;;;;;;;;;;;;;-140.72;100.00;52179.84;5041384;28;19923;-65
2022/07/25 03:11:19;;;;;;;;;;;;;;;-140.72;100.00;52171.72;5040961;28;20044;-65
2022/07/25 03:13:44;;;;;;;;;;;;;;;-140.72;100.00;52179.84;5047566;28;19968;-64
2022/07/25 03:16:09;;;;;;;;;;;;;;;-140.72;100.00;52165.63;5046831;28;19917;-65
2022/07/25 03:18:35;;;;;;;;;;;;;;;-140.72;100.00;52198.09;5037580;28;20070;-65
2022/07/25 03:21:00;;;;;;;;;;;;;;;-140.72;100.00;52196.06;5040412;28;19918;-66
2022/07/25 03:23:27;;;;;;;;;;;;;;;-140.72;100.00;52157.53;5043884;28;20000;-65
2022/07/25 03:25:52;;;;;;;;;;;;;;;-140.72;100.00;52204.19;5050619;28;19921;-66
2022/07/25 03:28:17;;;;;;;;;;;;;;;-140.72;100.00;52187.97;5055294;28;20398;-65
2022/07/25 03:30:42;;;;;;;;;;;;;;;-140.72;100.00;52218.38;5041854;28;20367;-65
2022/07/25 03:33:08;;;;;;;;;;;;;;;-140.72;100.00;52147.38;5055279;28;19940;-65
2022/07/25 03:35:33;;;;;;;;;;;;;;;-140.72;100.00;52177.81;5037620;28;19931;-65
2022/07/25 03:37:58;;;;;;;;;;;;;;;-140.72;100.00;52212.31;5047111;28;19917;-66
2022/07/25 03:40:23;;;;;;;;;;;;;;;-140.72;100.00;52228.53;5050382;28;19979;-65
2022/07/25 03:42:48;;;;;;;;;;;;;;;-140.72;100.00;52206.22;5038394;28;19917;-65
2022/07/25 03:45:14;;;;;;;;;;;;;;;-140.72;100.00;52216.34;5054884;28;19917;-65
2022/07/25 03:47:39;;;;;;;;;;;;;;;-140.72;100.00;52173.75;5054557;28;19917;-66
2022/07/25 03:50:04;;;;;;;;;;;;;;;-140.72;100.00;52129.13;5047252;28;19917;-65
2022/07/25 03:52:30;;;;;;;;;;;;;;;-140.72;100.00;52196.06;5048368;28;20429;-65
2022/07/25 03:54:55;;;;;;;;;;;;;;;-140.72;100.00;52183.91;5042963;28;19917;-66
2022/07/25 03:57:20;;;;;;;;;;;;;;;-140.72;100.00;52222.44;5035605;28;20286;-66
2022/07/25 03:59:45;;;;;;;;;;;;;;;-140.72;100.00;52181.88;5043070;28;19916;-65
2022/07/25 04:02:11;;;;;;;;;;;;;;;-140.72;100.00;52200.13;5053411;28;19920;-66
2022/07/25 04:04:36;;;;;;;;;;;;;;;-140.72;100.00;52216.34;5025809;28;20292;-65
2022/07/25 04:07:01;;;;;;;;;;;;;;;-140.72;100.00;52171.72;5051660;28;19917;-65
2022/07/25 04:09:26;;;;;;;;;;;;;;;-140.72;100.00;52242.75;5017113;28;20027;-65
2022/07/25 04:11:51;;;;;;;;;;;;;;;-140.72;100.00;52192.00;5031820;28;19917;-65
2022/07/25 04:14:17;;;;;;;;;;;;;;;-140.72;100.00;52185.94;5036714;28;20390;-66
2022/07/25 04:16:42;;;;;;;;;;;;;;;-140.72;100.00;52216.34;5052832;28;19917;-65
2022/07/25 04:19:07;;;;;;;;;;;;;;;-140.72;100.00;52220.41;5045508;28;19939;-66
2022/07/25 04:21:32;;;;;;;;;;;;;;;-140.72;100.00;52183.91;5037894;28;20023;-64
2022/07/25 04:23:58;;;;;;;;;;;;;;;-140.72;100.00;52149.41;5047703;28;20391;-65
2022/07/25 04:26:23;;;;;;;;;;;;;;;-140.72;100.00;52185.94;5050236;28;19927;-65
2022/07/25 04:28:48;;;;;;;;;;;;;;;-140.72;100.00;52196.06;5043177;28;20051;-65
2022/07/25 04:31:13;;;;;;;;;;;;;;;-140.72;100.00;52177.81;5052580;28;20022;-65
2022/07/25 04:33:39;;;;;;;;;;;;;;;-140.72;100.00;52179.84;5048100;28;19924;-65
2022/07/25 04:36:05;;;;;;;;;;;;;;;-140.72;100.00;52183.91;5049927;28;19924;-65
2022/07/25 04:38:31;;;;;;;;;;;;;;;-140.72;100.00;52153.47;5040995;28;19916;-66
2022/07/25 04:40:56;;;;;;;;;;;;;;;-140.72;100.00;52216.34;5056684;28;19917;-65
2022/07/25 04:43:22;;;;;;;;;;;;;;;-140.72;100.00;52165.63;5054231;28;19940;-65
2022/07/25 04:45:47;;;;;;;;;;;;;;;-140.72;100.00;52163.59;5055259;28;20007;-65
2022/07/25 04:48:12;;;;;;;;;;;;;;;-140.72;100.00;52131.16;5055908;28;19917;-65
2022/07/25 04:50:37;;;;;;;;;;;;;;;-140.72;100.00;52159.56;5041814;28;19917;-65
2022/07/25 04:53:04;;;;;;;;;;;;;;;-140.72;100.00;52200.13;5045012;28;19921;-65
2022/07/25 04:55:29;;;;;;;;;;;;;;;-140.72;100.00;52165.63;5034965;28;20269;-65
2022/07/25 04:57:54;;;;;;;;;;;;;;;-140.72;100.00;52145.34;5043883;28;19939;-64
2022/07/25 05:00:20;;;;;;;;;;;;;;;-140.72;100.00;52179.84;5050162;28;20303;-65
2022/07/25 05:02:45;;;;;;;;;;;;;;;-140.72;100.00;52163.59;5028151;28;19990;-65
2022/07/25 05:05:11;;;;;;;;;;;;;;;-140.72;100.00;52151.44;5049701;28;19924;-65
2022/07/25 05:07:36;;;;;;;;;;;;;;;-140.72;100.00;52133.16;5045971;28;19917;-65
2022/07/25 05:10:03;;;;;;;;;;;;;;;-140.72;100.00;52143.31;5054002;28;19959;-66
2022/07/25 05:12:29;;;;;;;;;;;;;;;-140.72;100.00;52153.47;5035949;28;20492;-65
2022/07/25 05:14:54;;;;;;;;;;;;;;;-140.72;100.00;52129.13;5053728;28;20009;-65
2022/07/25 05:17:19;;;;;;;;;;;;;;;-140.72;100.00;52137.22;5036048;28;20026;-65
2022/07/25 05:19:45;;;;;;;;;;;;;;;-140.72;100.00;52157.53;5036383;28;19917;-65
2022/07/25 05:22:10;;;;;;;;;;;;;;;-140.72;100.00;52143.31;5041816;28;20387;-65
2022/07/25 05:24:36;;;;;;;;;;;;;;;-140.72;100.00;52143.31;5052786;28;20351;-65
2022/07/25 05:27:02;;;;;;;;;;;;;;;-140.72;100.00;52192.00;5056371;28;19917;-65
2022/07/25 05:29:27;;;;;;;;;;;;;;;-140.72;100.00;52129.13;5055769;28;19916;-65
2022/07/25 05:31:52;;;;;;;;;;;;;;;-140.72;100.00;52169.69;5039732;28;19947;-65
2022/07/25 05:34:18;;;;;;;;;;;;;;;-140.72;100.00;52127.09;5057200;28;20360;-65
2022/07/25 05:36:43;;;;;;;;;;;;;;;-140.72;100.00;52177.81;5047544;28;19925;-65
2022/07/25 05:39:08;;;;;;;;;;;;;;;-140.72;100.00;52112.88;5050836;28;19917;-66
2022/07/25 05:41:33;;;;;;;;;;;;;;;-140.72;100.00;52123.03;5049556;28;19983;-66
2022/07/25 05:43:58;;;;;;;;;;;;;;;-140.72;100.00;52157.53;5065946;28;19917;-65
2022/07/25 05:46:24;;;;;;;;;;;;;;;-140.72;100.00;52143.31;5043828;28;19928;-66
2022/07/25 05:48:49;;;;;;;;;;;;;;;-140.72;100.00;52135.19;5057181;28;19917;-66
2022/07/25 05:51:14;;;;;;;;;;;;;;;-140.72;100.00;52125.06;5061077;28;19916;-64
2022/07/25 05:53:40;;;;;;;;;;;;;;;-140.72;100.00;52127.09;5056012;28;19935;-66
2022/07/25 05:56:05;;;;;;;;;;;;;;;-140.72;100.00;52163.59;5033804;28;19917;-66
2022/07/25 05:58:30;;;;;;;;;;;;;;;-140.72;100.00;52141.28;5034414;28;19943;-65
2022/07/25 06:00:56;;;;;;;;;;;;;;;-140.72;100.00;52151.44;5043440;28;19920;-65
2022/07/25 06:03:21;;;;;;;;;;;;;;;-140.72;100.00;52114.91;5060760;28;19924;-66
2022/07/25 06:05:47;;;;;;;;;;;;;;;-140.72;100.00;52062.16;5033108;28;19952;-65
2022/07/25 06:08:13;;;;;;;;;;;;;;;-140.72;100.00;52116.94;5040605;28;19960;-65
2022/07/25 06:10:38;;;;;;;;;;;;;;;-140.72;100.00;52139.25;5038084;28;19924;-65
2022/07/25 06:13:04;;;;;;;;;;;;;;;-140.72;100.00;52104.75;5050614;28;19916;-65
2022/07/25 06:15:29;;;;;;;;;;;;;;;-140.72;100.00;52145.34;5051115;28;20380;-65
2022/07/25 06:17:54;;;;;;;;;;;;;;;-140.72;100.00;52133.16;5049540;28;19924;-65
2022/07/25 06:20:19;;;;;;;;;;;;;;;-140.72;100.00;52110.84;5056790;28;19917;-65
2022/07/25 06:22:45;;;;;;;;;;;;;;;-140.72;100.00;52104.75;5047027;28;19917;-66
2022/07/25 06:25:10;;;;;;;;;;;;;;;-140.72;100.00;52141.28;5032470;28;19926;-65
2022/07/25 06:27:38;;;;;;;;;;;;;;;-140.72;100.00;52169.69;5046991;28;19917;-65
2022/07/25 06:30:04;;;;;;;;;;;;;;;-140.72;100.00;52155.50;5042178;28;20398;-65
2022/07/25 06:32:29;;;;;;;;;;;;;;;-140.72;100.00;52135.19;5039103;28;19916;-64
2022/07/25 06:34:54;;;;;;;;;;;;;;;-140.72;100.00;52116.94;5049775;28;19956;-65
2022/07/25 06:37:20;;;;;;;;;;;;;;;-140.72;100.00;52116.94;5055411;28;19924;-65
2022/07/25 06:39:45;;;;;;;;;;;;;;;-140.72;100.00;52143.31;5055448;28;19917;-66
2022/07/25 06:42:10;;;;;;;;;;;;;;;-140.72;100.00;52147.38;5038298;28;19940;-65
2022/07/25 06:44:35;;;;;;;;;;;;;;;-140.72;100.00;52187.97;5056211;28;20287;-65
2022/07/25 06:47:01;;;;;;;;;;;;;;;-140.72;100.00;52133.16;5054814;28;20373;-65
2022/07/25 06:49:26;;;;;;;;;;;;;;;-140.72;100.00;52169.69;5026316;28;20390;-65
2022/07/25 06:51:51;;;;;;;;;;;;;;;-140.72;100.00;52147.38;5067985;28;19956;-65
2022/07/25 06:54:17;;;;;;;;;;;;;;;-140.72;100.00;52187.97;5044058;28;19970;-65
2022/07/25 06:56:42;;;;;;;;;;;;;;;-140.72;100.00;52098.69;5055070;28;19916;-65
2022/07/25 06:59:08;;;;;;;;;;;;;;;-140.72;100.00;52147.38;5038248;28;19923;-65
2022/07/25 07:01:33;;;;;;;;;;;;;;;-140.72;100.00;52114.91;5042648;28;19924;-65
2022/07/25 07:03:58;;;;;;;;;;;;;;;-140.72;100.00;52143.31;5054895;28;19938;-65
2022/07/25 07:06:23;;;;;;;;;;;;;;;-140.72;100.00;52110.84;5055596;28;20350;-65
2022/07/25 07:08:49;;;;;;;;;;;;;;;-140.72;100.00;52123.03;5067407;28;19916;-65
2022/07/25 07:11:15;;;;;;;;;;;;;;;-140.72;100.00;52106.78;5043633;28;19970;-67
2022/07/25 07:13:40;;;;;;;;;;;;;;;-140.72;100.00;52133.16;5045924;28;19954;-71
2022/07/25 07:16:06;;;;;;;;;;;;;;;-140.72;100.00;52118.97;5050587;28;19921;-71
2022/07/25 07:18:54;;;;;;;;;;;;;;;-140.72;100.00;52104.75;5047779;28;19921;-72
2022/07/25 07:21:20;;;;;;;;;;;;;;;-140.72;100.00;52131.16;5050872;28;19918;-76
2022/07/25 07:23:45;;;;;;;;;;;;;;;-140.72;100.00;52131.16;5055812;28;19939;-73
2022/07/25 07:26:10;;;;;;;;;;;;;;;-140.72;100.00;52167.66;5053306;28;19917;-74
2022/07/25 07:28:35;;;;;;;;;;;;;;;-140.72;100.00;52131.16;5037309;28;19917;-73
2022/07/25 07:31:01;;;;;;;;;;;;;;;-140.72;100.00;52149.41;5047108;28;19979;-73
2022/07/25 07:33:26;;;;;;;;;;;;;;;-140.72;100.00;52096.66;5043841;28;19917;-72
2022/07/25 07:35:51;;;;;;;;;;;;;;;-140.72;100.00;52173.75;5032494;28;19916;-72
2022/07/25 07:38:17;;;;;;;;;;;;;;;-140.72;100.00;52096.66;5038121;28;20004;-72
2022/07/25 07:40:42;;;;;;;;;;;;;;;-140.72;100.00;52135.19;5058380;28;20010;-72
2022/07/25 07:43:07;;;;;;;;;;;;;;;-140.72;100.00;52090.56;5073540;28;19962;-72
2022/07/25 07:45:33;;;;;;;;;;;;;;;-140.72;100.00;52125.06;5058751;28;19921;-72
2022/07/25 07:47:58;;;;;;;;;;;;;;;-140.72;100.00;52127.09;5053309;28;20010;-72
2022/07/25 07:50:24;;;;;;;;;;;;;;;-140.72;100.00;52098.69;5054740;28;20269;-72
2022/07/25 07:52:50;;;;;;;;;;;;;;;-140.72;100.00;52110.84;5056199;28;19946;-71
2022/07/25 07:58:00;;;;;;;;;;;;;;;-140.72;100.00;52133.16;5042699;28;19924;-72
2022/07/25 08:00:29;;;;;;;;;;;;;;;-140.72;100.00;52157.53;5033283;28;19917;-72
2022/07/25 08:02:55;;;;;;;;;;;;;;;-140.72;100.00;52086.50;5030341;28;20288;-72
2022/07/25 08:05:25;;;;;;;;;;;;;;;-140.72;100.00;52100.72;5045221;28;19971;-72
2022/07/25 08:07:50;;;;;;;;;;;;;;;-140.72;100.00;52084.47;5059956;28;19917;-72
2022/07/25 08:10:27;;;;;;;;;;;;;;;-140.72;100.00;52074.34;5060161;28;19923;-73
2022/07/25 08:12:52;;;;;;;;;;;;;;;-140.72;100.00;52074.34;5046456;28;19987;-73
2022/07/25 08:15:18;;;;;;;;;;;;;;;-140.72;100.00;52123.03;5048500;28;19916;-73
2022/07/25 08:17:44;;;;;;;;;;;;;;;-140.72;100.00;52086.50;5055342;28;19954;-73
2022/07/25 08:20:09;;;;;;;;;;;;;;;-140.72;100.00;52108.81;5055529;28;19917;-73
2022/07/25 08:22:38;;;;;;;;;;;;;;;-140.72;100.00;52129.13;5024032;28;20291;-73
2022/07/25 08:25:04;;;;;;;;;;;;;;;-140.72;100.00;52098.69;5052629;28;19921;-73
2022/07/25 08:27:30;;;;;;;;;;;;;;;-140.72;100.00;52106.78;5066615;28;19925;-73
2022/07/25 08:29:55;;;;;;;;;;;;;;;-140.72;100.00;52110.84;5050026;28;19917;-74
2022/07/25 08:32:20;;;;;;;;;;;;;;;-140.72;100.00;52096.66;5054636;28;19916;-74
2022/07/25 08:34:45;;;;;;;;;;;;;;;-140.72;100.00;52039.84;5019893;28;19921;-73
2022/07/25 08:37:11;;;;;;;;;;;;;;;-140.72;100.00;52078.38;5043257;28;19917;-73
2022/07/25 08:39:36;;;;;;;;;;;;;;;-140.72;100.00;52025.63;5041144;28;19917;-73
2022/07/25 08:42:02;;;;;;;;;;;;;;;-140.72;100.00;52003.31;5054569;28;20020;-73
2022/07/25 08:44:31;;;;;;;;;;;;;;;-140.72;100.00;52033.75;5049730;28;19953;-73
2022/07/25 08:46:58;;;;;;;;;;;;;;;-140.72;100.00;52017.53;5048147;28;19916;-73
2022/07/25 08:49:23;;;;;;;;;;;;;;;-140.72;100.00;52076.34;5045487;28;19952;-76
2022/07/25 08:51:49;;;;;;;;;;;;;;;-140.72;100.00;52015.50;5064895;28;19916;-73
2022/07/25 08:54:15;;;;;;;;;;;;;;;-140.72;100.00;52045.94;5049505;28;19956;-76
2022/07/25 08:56:40;;;;;;;;;;;;;;;-140.72;100.00;51940.41;5065950;28;19947;-73
2022/07/25 08:59:05;;;;;;;;;;;;;;;-140.72;100.00;51995.19;5038310;28;20373;-74
2022/07/25 09:01:30;;;;;;;;;;;;;;;-140.72;100.00;51989.13;5049745;28;19959;-74
2022/07/25 09:03:56;;;;;;;;;;;;;;;-140.72;100.00;52023.59;5041056;28;19917;-73
2022/07/25 09:06:21;;;;;;;;;;;;;;;-140.72;100.00;51987.09;5052504;28;19917;-73
2022/07/25 09:08:50;;;;;;;;;;;;;;;-140.72;100.00;51993.19;5058027;28;19917;-73
2022/07/25 09:11:24;;;;;;;;;;;;;;;-140.72;100.00;52031.72;5043945;28;19924;-73
2022/07/25 09:13:56;;;;;;;;;;;;;;;-140.72;100.00;51983.03;5054177;28;19917;-73
2022/07/25 09:16:27;;;;;;;;;;;;;;;-140.72;100.00;52052.00;5040236;28;19924;-76
2022/07/25 09:18:53;;;;;;;;;;;;;;;-140.72;100.00;52045.94;5043640;28;19970;-76
2022/07/25 09:21:18;;;;;;;;;;;;;;;-140.72;100.00;52045.94;5060813;28;19917;-73
2022/07/25 09:23:44;;;;;;;;;;;;;;;-140.72;100.00;52003.31;5057283;28;19921;-73
2022/07/25 09:26:09;;;;;;;;;;;;;;;-140.72;100.00;52037.81;5032365;28;20369;-72
2022/07/25 09:28:44;;;;;;;;;;;;;;;-140.72;100.00;52023.59;5050258;28;19917;-72
2022/07/25 09:31:10;;;;;;;;;;;;;;;-140.72;100.00;52045.94;5054713;28;19966;-69
2022/07/25 09:33:43;;;;;;;;;;;;;;;-140.72;100.00;52043.91;5065818;28;19916;-68
2022/07/25 09:36:09;;;;;;;;;;;;;;;-140.72;100.00;52110.84;5037074;28;19968;-68
2022/07/25 09:38:34;;;;;;;;;;;;;;;-140.72;100.00;52090.56;5055295;28;19965;-69
2022/07/25 09:41:01;;;;;;;;;;;;;;;-140.72;100.00;52029.69;5056323;28;20015;-68
2022/07/25 09:43:36;;;;;;;;;;;;;;;-140.72;100.00;52045.94;5056404;28;19928;-68
2022/07/25 09:46:01;;;;;;;;;;;;;;;-140.72;100.00;51978.97;5037059;28;19917;-68
2022/07/25 09:48:26;;;;;;;;;;;;;;;-140.72;100.00;51843.03;5047727;28;19924;-68
2022/07/25 09:50:53;;;;;;;;;;;;;;;-140.72;100.00;51897.81;5055883;28;19916;-69
2022/07/25 09:53:18;;;;;;;;;;;;;;;-140.72;100.00;51916.06;5038358;28;19924;-68
2022/07/25 09:55:44;;;;;;;;;;;;;;;-140.72;100.00;51978.97;5049840;28;19917;-68
2022/07/25 09:58:09;;;;;;;;;;;;;;;-140.72;100.00;51871.44;5038189;28;19917;-69
2022/07/25 10:00:34;;;;;;;;;;;;;;;-140.72;100.00;51841.00;5049524;28;19918;-69
2022/07/25 10:03:00;;;;;;;;;;;;;;;-140.72;100.00;51887.66;5018658;28;19917;-68
2022/07/25 10:05:41;;;;;;;;;;;;;;;-140.72;100.00;51912.03;5042891;28;20288;-68
2022/07/25 10:08:07;;;;;;;;;;;;;;;-140.72;100.00;51934.34;5056653;28;19927;-69
2022/07/25 10:10:36;;;;;;;;;;;;;;;-140.72;100.00;52013.47;5051384;28;19926;-75
2022/07/25 10:13:09;;;;;;;;;;;;;;;-140.72;100.00;52013.47;5037833;28;19925;-69
2022/07/25 10:15:44;;;;;;;;;;;;;;;-140.72;100.00;52017.53;5061762;28;19926;-68
2022/07/25 10:18:10;;;;;;;;;;;;;;;-140.72;100.00;52045.94;5064276;28;19924;-68
2022/07/25 10:20:35;;;;;;;;;;;;;;;-140.72;100.00;52025.63;5057670;28;19917;-69
2022/07/25 10:23:00;;;;;;;;;;;;;;;-140.72;100.00;52062.16;5055227;28;20383;-68
2022/07/25 10:25:26;;;;;;;;;;;;;;;-140.72;100.00;52094.63;5053270;28;19917;-68
2022/07/25 10:27:58;;;;;;;;;;;;;;;-140.72;100.00;52084.47;5056193;28;19917;-68
2022/07/25 10:30:27;;;;;;;;;;;;;;;-140.72;100.00;52054.03;5051497;28;19927;-68
2022/07/25 10:33:00;;;;;;;;;;;;;;;-140.72;100.00;52086.50;5059566;28;19956;-68
2022/07/25 10:35:26;;;;;;;;;;;;;;;-140.72;100.00;52127.09;5038424;28;19921;-68
2022/07/25 10:37:53;;;;;;;;;;;;;;;-140.72;100.00;52175.78;5046641;28;20288;-67
2022/07/25 10:40:30;;;;;;;;;;;;;;;-140.72;100.00;52137.22;5047738;28;19924;-68
2022/07/25 10:42:59;;;;;;;;;;;;;;;-140.72;100.00;52157.53;5038903;28;19946;-68
2022/07/25 10:45:25;;;;;;;;;;;;;;;-140.72;100.00;52143.31;5047540;28;19916;-68
2022/07/25 10:47:53;;;;;;;;;;;;;;;-140.72;100.00;52123.03;5058036;28;19944;-68
2022/07/25 10:50:21;;;;;;;;;;;;;;;-140.72;100.00;52143.31;5047419;28;19917;-68
2022/07/25 10:52:56;;;;;;;;;;;;;;;-140.72;100.00;52123.03;5043492;28;20406;-68
2022/07/25 10:55:22;;;;;;;;;;;;;;;-140.72;100.00;52163.59;5048519;28;19917;-67
2022/07/25 10:57:57;;;;;;;;;;;;;;;-140.72;100.00;52102.75;5044466;28;19948;-67
2022/07/25 11:00:23;;;;;;;;;;;;;;;-140.72;100.00;52094.63;5045222;28;19923;-68
2022/07/25 11:02:48;;;;;;;;;;;;;;;-140.72;100.00;52121.00;5051873;28;20020;-69
2022/07/25 11:05:13;;;;;;;;;;;;;;;-140.72;100.00;52137.22;5051477;28;19924;-68
2022/07/25 11:07:48;;;;;;;;;;;;;;;-140.72;100.00;52129.13;5051771;28;19948;-69
2022/07/25 11:10:13;;;;;;;;;;;;;;;-140.72;100.00;52139.25;5054428;28;19921;-68
2022/07/25 11:12:38;;;;;;;;;;;;;;;-140.72;100.00;52131.16;5048568;28;19917;-68
2022/07/25 11:15:05;;;;;;;;;;;;;;;-140.72;100.00;52110.84;5047467;28;19917;-69
2022/07/25 11:17:31;;;;;;;;;;;;;;;-140.72;100.00;52167.66;5047060;28;19921;-67
2022/07/25 11:19:57;;;;;;;;;;;;;;;-140.72;100.00;52127.09;5038087;28;19923;-67
2022/07/25 11:22:23;;;;;;;;;;;;;;;-140.72;100.00;52114.91;5053641;28;19963;-68
2022/07/25 11:24:49;;;;;;;;;;;;;;;-140.72;100.00;52098.69;5037115;28;20011;-68
2022/07/25 11:27:22;;;;;;;;;;;;;;;-140.72;100.00;52116.94;5035497;28;20397;-69
2022/07/25 11:29:47;;;;;;;;;;;;;;;-140.72;100.00;52056.06;5047264;28;19922;-68
2022/07/25 11:32:13;;;;;;;;;;;;;;;-140.72;100.00;52056.06;5030839;28;19928;-68
2022/07/25 11:34:40;;;;;;;;;;;;;;;-140.72;100.00;52052.00;5035319;28;19925;-68
2022/07/25 11:37:06;;;;;;;;;;;;;;;-140.72;100.00;52084.47;5049683;28;19916;-68
2022/07/25 11:39:33;;;;;;;;;;;;;;;-140.72;100.00;52049.97;5055314;28;19924;-68
2022/07/25 11:41:58;;;;;;;;;;;;;;;-140.72;100.00;51997.22;5055540;28;19923;-68
2022/07/25 11:44:34;;;;;;;;;;;;;;;-140.72;100.00;51981.00;5049529;28;19917;-69
2022/07/25 11:47:00;;;;;;;;;;;;;;;-140.72;100.00;52029.69;5049459;28;19924;-67
2022/07/25 11:49:25;;;;;;;;;;;;;;;-140.72;100.00;52039.84;5055151;28;19917;-67
2022/07/25 11:51:50;;;;;;;;;;;;;;;-140.72;100.00;51989.13;5055021;28;20303;-67
2022/07/25 11:54:15;;;;;;;;;;;;;;;-140.72;100.00;52033.75;5047165;28;19918;-67
2022/07/25 11:56:42;;;;;;;;;;;;;;;-140.72;100.00;52062.16;5035711;28;19917;-67
2022/07/25 11:59:08;;;;;;;;;;;;;;;-140.72;100.00;52056.06;5039400;28;19917;-68
2022/07/25 12:01:34;;;;;;;;;;;;;;;-140.72;100.00;51903.91;5044450;28;19928;-72
2022/07/25 12:04:06;;;;;;;;;;;;;;;-140.72;100.00;51851.16;5056219;28;19963;-68
2022/07/25 12:06:32;;;;;;;;;;;;;;;-140.72;100.00;51857.25;5054475;28;19923;-67
2022/07/25 12:08:57;;;;;;;;;;;;;;;-140.72;100.00;51836.94;5043167;28;20345;-68
2022/07/25 12:11:23;;;;;;;;;;;;;;;-140.72;100.00;51930.28;5052973;28;19928;-68
2022/07/25 12:13:48;;;;;;;;;;;;;;;-140.72;100.00;52001.28;5024709;28;19917;-68
2022/07/25 12:16:14;;;;;;;;;;;;;;;-140.72;100.00;52001.28;5055689;28;20284;-68